Terminal Aerodrome Forecast
Issued by NWS Omaha/Valley, NE

Home | Current Version | Previous Version | Graphics & Text | Print | Product List | Glossary On
Versions: 1 2 3 4 5 6 7 8 9 10 11 12 13 14 15 16 17 18 19 20 21 22 23 24 25
000
FTUS43 KOAX 271122 AAA
TAFOFK
TAF AMD
KOFK 271122Z 2711/2812 00000KT 4SM BR OVC003
      TEMPO 2712/2714 1SM BR
     FM271500 VRB03KT P6SM BKN007
     FM271600 17004KT P6SM SCT015
      TEMPO 2810/2812 5SM BR=

USA.gov is the U.S. government's official web portal to all federal, state and local government web resources and services.